Time;durP1;ratioP1;P1;durP2;ratioP2;P2;SDS_P1;SDS_P2;PMS_P1;PMS_P2;Temp;Humidity;BMP_temperature;BMP_pressure;BME280_temperature;BME280_humidity;BME280_pressure;Samples;Min_cycle;Max_cycle;Signal;HPM_P1;HPM_P2
2021/04/27 00:00:11;;;;;;;3.90;1.97;;;;;;;4.04;39.63;94975.66;5011809;28;20190;-75
2021/04/27 00:02:36;;;;;;;7.00;2.00;;;;;;;4.08;39.28;94971.91;4994143;28;20615;-75
2021/04/27 00:05:03;;;;;;;4.50;2.20;;;;;;;3.96;39.75;94968.53;5011327;28;20196;-73
2021/04/27 00:07:28;;;;;;;4.63;2.00;;;;;;;3.85;39.77;94965.19;4994041;28;20175;-73
2021/04/27 00:09:54;;;;;;;3.57;2.00;;;;;;;3.76;40.60;94965.94;5011830;28;20179;-73
2021/04/27 00:12:19;;;;;;;4.27;2.13;;;;;;;3.70;40.58;94957.75;5027080;28;20690;-75
2021/04/27 00:14:44;;;;;;;2.33;1.93;;;;;;;3.72;40.31;94954.28;5011379;28;20179;-75
2021/04/27 00:17:10;;;;;;;3.27;2.07;;;;;;;3.59;40.57;94951.84;5011663;28;20186;-74
2021/04/27 00:19:35;;;;;;;3.10;1.97;;;;;;;3.52;41.07;94948.91;5011570;28;20767;-73
2021/04/27 00:22:00;;;;;;;3.10;2.37;;;;;;;3.48;41.05;94939.03;5011550;28;20179;-73
2021/04/27 00:24:30;;;;;;;2.63;1.90;;;;;;;3.48;41.13;94939.84;5011256;28;20179;-73
2021/04/27 00:26:55;;;;;;;4.77;2.37;;;;;;;3.53;41.45;94939.47;5011672;28;20205;-73
2021/04/27 00:29:20;;;;;;;2.40;2.07;;;;;;;3.46;41.61;94933.22;5011365;28;20673;-73
2021/04/27 00:31:46;;;;;;;2.10;1.73;;;;;;;3.55;40.99;94932.50;5011457;28;20183;-72
2021/04/27 00:34:11;;;;;;;4.43;2.20;;;;;;;3.42;41.58;94936.00;5011335;28;20179;-73
2021/04/27 00:36:36;;;;;;;2.40;1.70;;;;;;;3.42;41.52;94935.19;5011154;28;20202;-74
2021/04/27 00:39:02;;;;;;;3.80;1.90;;;;;;;3.48;41.25;94927.00;5011624;28;20269;-73
2021/04/27 00:41:28;;;;;;;3.00;1.93;;;;;;;3.44;41.32;94920.47;5011566;28;20206;-73
2021/04/27 00:43:54;;;;;;;2.67;2.00;;;;;;;3.46;41.63;94926.31;4993930;28;20849;-73
2021/04/27 00:46:19;;;;;;;4.73;1.77;;;;;;;3.48;40.87;94919.31;5011040;28;20300;-73
2021/04/27 00:48:44;;;;;;;3.30;2.20;;;;;;;3.41;41.68;94918.97;5011152;28;20195;-73
2021/04/27 00:51:09;;;;;;;2.70;2.17;;;;;;;3.53;41.18;94914.63;5011334;28;20191;-75
2021/04/27 00:53:35;;;;;;;4.10;2.30;;;;;;;3.49;41.22;94909.84;5021161;28;20186;-75
2021/04/27 00:56:00;;;;;;;2.93;1.97;;;;;;;3.49;41.28;94908.09;5031629;28;20210;-74
2021/04/27 00:58:27;;;;;;;4.83;2.63;;;;;;;3.33;41.47;94899.97;5016797;28;20188;-74
2021/04/27 01:00:53;;;;;;;4.13;2.10;;;;;;;3.38;41.89;94903.00;5034515;28;20187;-75
2021/04/27 01:03:18;;;;;;;2.43;2.10;;;;;;;3.35;41.97;94901.47;5034760;28;20257;-75
2021/04/27 01:05:44;;;;;;;7.03;2.63;;;;;;;3.23;42.17;94899.84;5034294;28;20535;-74
2021/04/27 01:08:13;;;;;;;4.17;2.30;;;;;;;3.19;42.35;94903.63;5034526;28;20198;-75
2021/04/27 01:10:54;;;;;;;3.17;2.33;;;;;;;3.18;42.73;94901.13;5033383;28;20636;-73
2021/04/27 01:13:34;;;;;;;2.43;1.87;;;;;;;3.19;42.67;94895.09;5034281;28;20171;-74
2021/04/27 01:16:00;;;;;;;4.17;2.13;;;;;;;3.12;42.78;94895.56;5032837;28;20196;-74
2021/04/27 01:18:26;;;;;;;4.23;2.50;;;;;;;3.07;42.88;94894.28;5034309;28;20170;-73
2021/04/27 01:20:51;;;;;;;4.67;2.30;;;;;;;3.10;42.84;94897.44;5033164;28;20205;-74
2021/04/27 01:23:22;;;;;;;3.67;2.53;;;;;;;3.06;42.63;94901.16;5034257;28;20773;-74
2021/04/27 01:25:55;;;;;;;3.73;2.20;;;;;;;3.07;43.22;94892.53;5033767;28;20199;-74
2021/04/27 01:28:21;;;;;;;4.80;2.50;;;;;;;3.10;42.92;94888.94;5034197;28;20683;-74
2021/04/27 01:30:47;;;;;;;4.60;2.30;;;;;;;2.98;43.52;94882.97;5033100;28;20249;-74
2021/04/27 01:33:15;;;;;;;4.23;2.40;;;;;;;2.97;43.55;94886.47;5034159;28;20667;-74
2021/04/27 01:35:41;;;;;;;6.63;2.53;;;;;;;2.87;43.84;94883.00;5032600;28;20513;-74
2021/04/27 01:38:07;;;;;;;4.67;2.60;;;;;;;2.94;43.97;94884.16;5033970;28;20185;-74
2021/04/27 01:40:32;;;;;;;4.13;2.60;;;;;;;2.89;43.62;94882.88;5016138;28;20644;-74
2021/04/27 01:43:01;;;;;;;6.43;3.03;;;;;;;2.83;44.47;94879.03;5033942;28;20174;-74
2021/04/27 01:45:27;;;;;;;10.80;2.97;;;;;;;2.82;44.19;94878.19;5033649;28;20202;-74
2021/04/27 01:47:56;;;;;;;6.73;2.90;;;;;;;2.87;43.92;94874.47;5033785;28;20194;-74
2021/04/27 01:50:22;;;;;;;4.83;2.23;;;;;;;2.74;44.46;94877.16;5016080;28;20169;-74
2021/04/27 01:52:48;;;;;;;5.27;2.53;;;;;;;2.76;44.52;94871.00;5015929;28;20209;-74
2021/04/27 01:55:15;;;;;;;3.43;2.63;;;;;;;2.73;44.54;94875.50;5033381;28;20202;-74
2021/04/27 01:57:40;;;;;;;3.73;2.60;;;;;;;2.77;44.79;94877.75;5033462;28;20181;-74
2021/04/27 02:00:07;;;;;;;3.90;2.50;;;;;;;2.59;45.14;94870.63;5033548;28;20188;-74
2021/04/27 02:02:33;;;;;;;6.83;2.17;;;;;;;2.60;44.76;94867.94;5033533;28;20657;-73
2021/04/27 02:04:58;;;;;;;2.80;2.43;;;;;;;2.62;44.85;94870.41;5033045;28;20181;-73
2021/04/27 02:07:24;;;;;;;2.80;2.50;;;;;;;2.58;45.23;94864.69;5032701;28;20188;-74
2021/04/27 02:09:49;;;;;;;2.10;1.77;;;;;;;2.53;45.26;94865.03;5033364;28;20211;-74
2021/04/27 02:12:15;;;;;;;2.47;2.13;;;;;;;2.66;45.17;94859.00;5033429;28;20183;-74
2021/04/27 02:14:41;;;;;;;4.67;2.73;;;;;;;2.60;45.28;94852.56;5032976;28;20566;-74
2021/04/27 02:17:15;;;;;;;2.73;2.30;;;;;;;2.52;45.37;94860.03;5033106;28;20526;-74
2021/04/27 02:19:40;;;;;;;2.83;2.00;;;;;;;2.46;45.75;94851.03;5015571;28;20182;-74
2021/04/27 02:22:07;;;;;;;3.63;2.37;;;;;;;2.48;45.94;94846.63;5033140;28;20183;-74
2021/04/27 02:24:35;;;;;;;4.70;2.50;;;;;;;2.39;46.04;94849.88;5032854;28;20265;-74
2021/04/27 02:27:01;;;;;;;4.10;2.53;;;;;;;2.43;46.14;94855.59;5033040;28;20668;-74
2021/04/27 02:29:27;;;;;;;2.83;2.40;;;;;;;2.48;45.76;94848.38;5032815;28;20299;-74
2021/04/27 02:31:52;;;;;;;5.67;2.60;;;;;;;2.30;46.50;94850.59;5015189;28;20269;-74
2021/04/27 02:34:21;;;;;;;4.93;2.57;;;;;;;2.25;46.93;94847.53;5015017;28;20210;-73
2021/04/27 02:36:47;;;;;;;5.17;2.30;;;;;;;2.23;46.77;94841.72;5033028;28;20285;-74
2021/04/27 02:39:13;;;;;;;5.60;2.43;;;;;;;2.24;46.73;94856.16;5032902;28;20180;-74
2021/04/27 02:41:39;;;;;;;5.07;2.47;;;;;;;2.24;46.85;94841.59;5032876;28;20229;-74
2021/04/27 02:44:07;;;;;;;2.50;2.00;;;;;;;2.21;46.96;94838.47;5032650;28;20641;-74
2021/04/27 02:46:33;;;;;;;4.73;2.50;;;;;;;2.19;46.92;94840.28;5032279;28;20206;-74
2021/04/27 02:48:58;;;;;;;3.87;2.00;;;;;;;2.17;47.59;94837.84;5032471;28;20577;-74
2021/04/27 02:51:23;;;;;;;3.30;2.40;;;;;;;2.13;47.59;94836.47;5032604;28;20340;-74
2021/04/27 02:53:49;;;;;;;5.53;2.90;;;;;;;1.99;48.27;94846.91;5032587;28;20188;-74
2021/04/27 02:56:14;;;;;;;2.70;2.40;;;;;;;1.96;48.66;94832.59;5032187;28;20195;-74
2021/04/27 02:58:40;;;;;;;5.77;3.33;;;;;;;1.93;48.99;94837.91;5032138;28;20175;-73
2021/04/27 03:01:07;;;;;;;5.20;2.93;;;;;;;1.88;49.08;94837.44;5032434;28;20178;-73
2021/04/27 03:03:32;;;;;;;7.07;2.80;;;;;;;1.84;49.64;94838.59;5032560;28;20185;-74
2021/04/27 03:05:57;;;;;;;4.47;2.53;;;;;;;1.84;49.57;94835.22;5014332;28;20587;-74
2021/04/27 03:08:23;;;;;;;3.27;2.57;;;;;;;1.79;49.22;94827.88;5032217;28;20293;-73
2021/04/27 03:10:48;;;;;;;3.93;2.60;;;;;;;1.78;50.18;94833.13;5032253;28;20668;-72
2021/04/27 03:13:13;;;;;;;3.93;2.80;;;;;;;1.74;49.76;94826.56;5032060;28;20674;-73
2021/04/27 03:15:39;;;;;;;4.13;2.40;;;;;;;1.69;50.09;94829.47;5031776;28;20621;-73
2021/04/27 03:18:04;;;;;;;3.93;2.57;;;;;;;1.69;50.27;94827.75;5032212;28;20220;-73
2021/04/27 03:20:29;;;;;;;4.33;2.70;;;;;;;1.68;50.19;94831.22;5032161;28;20182;-73
2021/04/27 03:22:55;;;;;;;3.10;2.30;;;;;;;1.68;50.38;94832.97;5032151;28;20187;-73
2021/04/27 03:25:20;;;;;;;5.70;2.53;;;;;;;1.67;50.47;94828.75;5031778;28;20677;-74
2021/04/27 03:27:46;;;;;;;4.73;2.63;;;;;;;1.64;50.70;94826.44;5031569;28;20441;-73
2021/04/27 03:30:12;;;;;;;5.50;2.87;;;;;;;1.61;50.38;94822.34;5032100;28;20183;-73
2021/04/27 03:32:38;;;;;;;5.33;2.33;;;;;;;1.58;50.86;94827.69;5031876;28;20178;-73
2021/04/27 03:35:05;;;;;;;3.10;2.63;;;;;;;1.54;51.16;94823.72;5031573;28;20710;-73
2021/04/27 03:37:31;;;;;;;4.10;2.13;;;;;;;1.61;50.82;94826.66;5031781;28;20182;-72
2021/04/27 03:39:56;;;;;;;2.93;2.47;;;;;;;1.56;51.05;94826.16;5031734;28;20232;-73
2021/04/27 03:42:21;;;;;;;4.33;2.50;;;;;;;1.53;51.55;94826.41;5031534;28;20309;-73
2021/04/27 03:44:46;;;;;;;5.93;3.00;;;;;;;1.52;50.85;94817.91;5031401;28;20186;-75
2021/04/27 03:47:12;;;;;;;4.67;2.90;;;;;;;1.48;51.27;94821.59;5031715;28;20260;-73
2021/04/27 03:49:37;;;;;;;2.97;2.50;;;;;;;1.46;51.11;94822.63;5031552;28;20616;-74
2021/04/27 03:52:03;;;;;;;3.00;2.40;;;;;;;1.49;51.38;94820.66;5031723;28;20704;-74
2021/04/27 03:54:28;;;;;;;4.93;2.70;;;;;;;1.49;51.21;94819.84;5031380;28;20712;-76
2021/04/27 03:56:53;;;;;;;4.13;3.00;;;;;;;1.46;51.48;94820.06;5031059;28;20208;-73
2021/04/27 03:59:19;;;;;;;5.50;2.93;;;;;;;1.45;51.35;94810.78;5031473;28;20532;-74
2021/04/27 04:01:44;;;;;;;2.33;2.10;;;;;;;1.50;51.09;94821.47;5031425;28;20183;-73
2021/04/27 04:04:09;;;;;;;6.77;2.50;;;;;;;1.48;51.07;94815.66;5030250;28;20182;-73
2021/04/27 04:06:35;;;;;;;4.27;2.50;;;;;;;1.51;51.35;94820.56;5031145;28;20241;-73
2021/04/27 04:09:02;;;;;;;3.30;2.57;;;;;;;1.61;50.69;94824.91;5031172;28;20208;-73
2021/04/27 04:11:30;;;;;;;3.87;2.50;;;;;;;1.53;50.77;94818.72;5031514;28;20257;-74
2021/04/27 04:13:56;;;;;;;4.87;2.47;;;;;;;1.54;51.04;94821.16;5031355;28;20634;-72
2021/04/27 04:16:21;;;;;;;3.47;2.50;;;;;;;1.48;50.84;94820.78;5031081;28;20201;-72
2021/04/27 04:18:46;;;;;;;3.33;2.43;;;;;;;1.52;50.88;94820.47;5031362;28;20183;-73
2021/04/27 04:21:12;;;;;;;4.87;2.73;;;;;;;1.47;51.42;94819.16;5031352;28;20182;-73
2021/04/27 04:23:37;;;;;;;5.17;2.50;;;;;;;1.45;51.37;94826.13;5031140;28;20277;-73
2021/04/27 04:26:02;;;;;;;3.73;2.70;;;;;;;1.53;50.92;94818.72;5030930;28;20206;-72
2021/04/27 04:28:28;;;;;;;3.20;2.30;;;;;;;1.52;51.43;94827.31;5031148;28;20214;-74
2021/04/27 04:30:53;;;;;;;3.43;2.43;;;;;;;1.64;50.92;94821.31;5031901;28;20178;-74
2021/04/27 04:33:19;;;;;;;3.33;2.40;;;;;;;1.66;50.87;94819.44;5017459;28;20185;-73
2021/04/27 04:35:44;;;;;;;3.43;2.57;;;;;;;1.70;50.80;94826.81;5034865;28;20241;-75
2021/04/27 04:38:10;;;;;;;5.63;2.60;;;;;;;1.84;51.06;94823.22;5034968;28;20174;-74
2021/04/27 04:40:35;;;;;;;3.13;2.30;;;;;;;2.03;50.02;94821.88;5034968;28;20646;-74
2021/04/27 04:43:01;;;;;;;6.70;2.73;;;;;;;2.02;50.66;94822.78;5034982;28;20186;-73
2021/04/27 04:45:26;;;;;;;5.60;2.50;;;;;;;1.94;50.81;94818.25;5034654;28;20285;-75
2021/04/27 04:47:52;;;;;;;8.40;2.87;;;;;;;1.91;51.01;94818.47;5034792;28;20206;-74
2021/04/27 04:50:18;;;;;;;7.43;2.50;;;;;;;1.84;51.18;94815.53;5034833;28;20186;-74
2021/04/27 04:52:44;;;;;;;4.93;2.77;;;;;;;1.87;51.41;94815.34;5034685;28;20186;-74
2021/04/27 04:55:10;;;;;;;3.37;2.60;;;;;;;2.05;50.85;94813.16;5034355;28;20206;-75
2021/04/27 04:57:36;;;;;;;2.60;1.97;;;;;;;2.17;50.57;94825.03;5034849;28;20592;-74
2021/04/27 05:00:04;;;;;;;5.37;2.50;;;;;;;2.21;50.11;94815.41;5034631;28;20179;-74
2021/04/27 05:02:30;;;;;;;2.80;2.23;;;;;;;2.24;50.22;94815.16;5034460;28;20518;-74
2021/04/27 05:04:55;;;;;;;3.57;2.57;;;;;;;2.37;49.86;94820.16;5034195;28;20210;-75
2021/04/27 05:07:23;;;;;;;5.97;2.70;;;;;;;2.56;49.43;94817.84;5034350;28;20183;-74
2021/04/27 05:09:48;;;;;;;4.80;2.90;;;;;;;2.64;49.53;94830.06;5033973;28;20206;-74
2021/04/27 05:12:14;;;;;;;5.53;2.77;;;;;;;2.68;49.75;94828.91;5034542;28;20188;-74
2021/04/27 05:14:40;;;;;;;2.77;2.17;;;;;;;2.96;48.59;94833.56;5016469;28;20209;-74
2021/04/27 05:17:07;;;;;;;5.30;2.60;;;;;;;3.09;48.13;94835.97;5034280;28;20220;-74
2021/04/27 05:19:32;;;;;;;4.07;2.40;;;;;;;3.27;47.70;94838.84;5032566;28;20646;-74
2021/04/27 05:21:58;;;;;;;5.17;3.23;;;;;;;3.17;48.28;94840.50;5034296;28;20189;-74
2021/04/27 05:24:25;;;;;;;3.30;2.30;;;;;;;3.39;47.75;94838.72;5033887;28;20175;-74
2021/04/27 05:26:50;;;;;;;4.47;2.80;;;;;;;3.58;47.07;94835.50;5034127;28;20230;-74
2021/04/27 05:29:15;;;;;;;5.47;2.80;;;;;;;3.62;47.10;94825.78;5033844;28;20269;-74
2021/04/27 05:31:41;;;;;;;3.53;2.63;;;;;;;3.86;46.35;94836.66;5034245;28;20232;-74
2021/04/27 05:34:06;;;;;;;5.57;2.60;;;;;;;3.72;47.01;94833.59;5033954;28;20203;-75
2021/04/27 05:36:32;;;;;;;4.27;2.53;;;;;;;4.00;46.52;94825.28;5033712;28;20208;-75
2021/04/27 05:38:57;;;;;;;4.50;2.83;;;;;;;3.96;46.61;94827.25;5033952;28;20174;-74
2021/04/27 05:41:23;;;;;;;7.07;2.70;;;;;;;4.16;45.72;94830.78;5033894;28;20193;-74
2021/04/27 05:43:48;;;;;;;5.37;2.67;;;;;;;4.22;45.96;94824.31;5032505;28;20187;-74
2021/04/27 05:46:13;;;;;;;5.10;2.70;;;;;;;4.58;45.18;94832.47;5033427;28;20256;-74
2021/04/27 05:48:39;;;;;;;6.17;3.20;;;;;;;4.73;44.84;94834.56;5033540;28;20214;-74
2021/04/27 05:51:04;;;;;;;5.60;3.13;;;;;;;4.68;45.08;94833.31;5033689;28;20250;-74
2021/04/27 05:53:29;;;;;;;5.37;3.73;;;;;;;4.60;44.77;94834.00;5026187;28;20205;-74
2021/04/27 05:55:55;;;;;;;6.87;2.80;;;;;;;4.70;44.17;94839.19;5000589;28;20245;-73
2021/04/27 05:58:20;;;;;;;7.40;3.03;;;;;;;4.90;44.53;94832.34;4993305;28;20203;-75
2021/04/27 06:00:46;;;;;;;4.83;2.87;;;;;;;4.67;45.39;94829.94;4992438;28;20237;-76
2021/04/27 06:03:11;;;;;;;6.17;2.70;;;;;;;4.99;44.65;94836.69;4994194;28;20239;-76
2021/04/27 06:05:36;;;;;;;5.33;2.90;;;;;;;5.08;44.54;94833.34;4993553;28;20200;-75
2021/04/27 06:08:01;;;;;;;7.00;3.00;;;;;;;5.28;44.17;94819.56;4993922;28;20220;-76
2021/04/27 06:10:27;;;;;;;7.80;2.90;;;;;;;5.22;44.49;94824.44;4994088;28;20556;-76
2021/04/27 06:12:52;;;;;;;5.27;2.80;;;;;;;5.18;44.20;94828.22;5006230;28;20202;-76
2021/04/27 06:15:18;;;;;;;6.63;3.20;;;;;;;5.48;44.14;94819.56;5032897;28;20222;-76
2021/04/27 06:17:44;;;;;;;4.70;2.57;;;;;;;5.52;43.70;94820.94;5032990;28;20648;-76
2021/04/27 06:20:11;;;;;;;3.87;2.70;;;;;;;5.95;43.11;94821.38;5033075;28;20233;-76
2021/04/27 06:22:37;;;;;;;3.47;2.63;;;;;;;6.03;42.42;94819.91;5032862;28;20240;-75
2021/04/27 06:25:04;;;;;;;4.93;2.83;;;;;;;5.91;42.56;94822.59;5032679;28;20536;-75
2021/04/27 06:27:29;;;;;;;4.73;2.70;;;;;;;6.16;42.67;94822.97;5032676;28;20584;-75
2021/04/27 06:29:56;;;;;;;6.13;2.57;;;;;;;6.58;41.38;94830.34;5035785;28;20214;-79
2021/04/27 06:32:21;;;;;;;3.50;2.90;;;;;;;7.23;40.17;94826.81;5037204;28;20561;-76
2021/04/27 06:34:47;;;;;;;4.43;3.07;;;;;;;8.58;37.51;94834.47;5032614;28;20241;-75
2021/04/27 06:37:12;;;;;;;5.73;2.80;;;;;;;9.91;33.95;94835.44;5032817;28;20185;-76
2021/04/27 06:39:38;;;;;;;4.03;3.00;;;;;;;10.41;33.00;94833.66;5032747;28;20184;-76
2021/04/27 06:42:05;;;;;;;3.00;2.33;;;;;;;10.07;32.92;94833.78;5031323;28;20181;-76
2021/04/27 06:44:30;;;;;;;5.53;3.10;;;;;;;10.42;32.64;94830.94;5032497;28;20202;-75
2021/04/27 06:46:55;;;;;;;4.80;2.80;;;;;;;9.88;33.81;94832.31;5032619;28;20704;-76
2021/04/27 06:49:21;;;;;;;4.63;3.07;;;;;;;10.61;32.22;94837.56;5032398;28;20305;-75
2021/04/27 06:51:46;;;;;;;8.60;3.20;;;;;;;10.53;32.69;94831.56;5032549;28;20182;-76
2021/04/27 06:54:11;;;;;;;3.90;2.63;;;;;;;9.98;34.24;94824.38;5032033;28;20666;-73
2021/04/27 06:56:37;;;;;;;4.90;2.87;;;;;;;9.90;33.87;94827.81;5031941;28;20673;-76
2021/04/27 06:59:02;;;;;;;4.30;2.93;;;;;;;11.42;31.29;94833.06;5032283;28;20179;-76
2021/04/27 07:01:30;;;;;;;4.67;3.50;;;;;;;12.26;30.53;94834.00;5011171;28;20186;-75
2021/04/27 07:03:55;;;;;;;4.90;3.20;;;;;;;11.26;31.67;94826.16;5012209;28;20625;-76
2021/04/27 07:06:20;;;;;;;4.60;2.90;;;;;;;11.43;31.84;94832.91;5012135;28;20333;-75
2021/04/27 07:08:45;;;;;;;6.03;3.70;;;;;;;11.37;31.86;94830.16;5012024;28;20214;-76
2021/04/27 07:11:11;;;;;;;5.27;3.20;;;;;;;11.34;31.76;94831.31;5011601;28;20210;-75
2021/04/27 07:13:36;;;;;;;7.13;4.07;;;;;;;10.74;33.89;94832.63;5012029;28;20563;-76
2021/04/27 07:16:02;;;;;;;5.03;3.80;;;;;;;11.00;32.78;94831.59;5011398;28;20256;-76
2021/04/27 07:18:27;;;;;;;3.80;3.33;;;;;;;10.91;33.21;94832.59;5010084;28;20647;-76
2021/04/27 07:20:53;;;;;;;5.73;3.37;;;;;;;10.35;33.68;94827.34;5002712;28;20206;-76
2021/04/27 07:23:18;;;;;;;5.30;3.20;;;;;;;9.74;35.80;94830.38;5011538;28;20191;-76
2021/04/27 07:25:43;;;;;;;6.07;3.70;;;;;;;9.26;36.84;94822.31;5011062;28;20194;-76
2021/04/27 07:28:09;;;;;;;4.63;3.20;;;;;;;9.30;36.64;94825.41;5011262;28;20219;-76
2021/04/27 07:30:35;;;;;;;7.57;4.30;;;;;;;9.27;36.91;94825.72;5011557;28;20191;-75
2021/04/27 07:33:01;;;;;;;7.13;4.10;;;;;;;8.85;37.29;94826.53;5011662;28;20182;-76
2021/04/27 07:35:27;;;;;;;11.53;4.63;;;;;;;9.05;36.88;94827.09;5011184;28;20206;-76
2021/04/27 07:37:52;;;;;;;9.83;3.87;;;;;;;8.98;37.99;94826.91;5011483;28;20226;-76
2021/04/27 07:40:17;;;;;;;7.20;4.10;;;;;;;9.29;37.19;94826.38;5011327;28;20186;-75
2021/04/27 07:42:43;;;;;;;10.07;4.90;;;;;;;8.91;37.86;94825.09;5011105;28;20187;-77
2021/04/27 07:45:13;;;;;;;5.83;3.70;;;;;;;9.08;38.02;94829.38;4994424;28;20203;-76
2021/04/27 07:47:38;;;;;;;6.23;4.27;;;;;;;9.22;37.01;94833.16;4993453;28;20187;-76
2021/04/27 07:50:05;;;;;;;5.97;3.87;;;;;;;8.96;37.34;94830.63;5011433;28;20628;-76
2021/04/27 07:52:31;;;;;;;5.63;3.70;;;;;;;8.93;38.22;94834.34;5010949;28;20187;-76
2021/04/27 07:54:57;;;;;;;6.70;3.60;;;;;;;8.74;38.01;94834.53;5011031;28;20183;-76
2021/04/27 07:57:22;;;;;;;5.03;3.80;;;;;;;8.84;38.44;94834.47;5011258;28;20194;-75
2021/04/27 07:59:47;;;;;;;6.77;4.00;;;;;;;8.03;39.66;94837.25;5011460;28;20182;-76
2021/04/27 08:02:13;;;;;;;6.57;4.47;;;;;;;7.85;40.17;94835.50;5011296;28;20183;-76
2021/04/27 08:04:38;;;;;;;7.10;4.70;;;;;;;7.96;39.80;94831.91;5010528;28;20595;-76
2021/04/27 08:07:03;;;;;;;5.70;4.00;;;;;;;7.95;39.88;94833.66;5010236;28;20261;-76
2021/04/27 08:09:29;;;;;;;10.57;4.80;;;;;;;8.31;40.02;94832.81;4993186;28;20618;-76
2021/04/27 08:11:54;;;;;;;6.13;4.20;;;;;;;8.61;38.82;94840.16;4993480;28;20186;-76
2021/04/27 08:14:20;;;;;;;10.30;4.60;;;;;;;8.55;38.42;94839.94;5010782;28;20179;-76
2021/04/27 08:16:46;;;;;;;8.40;4.17;;;;;;;8.43;39.07;94836.78;5011344;28;20202;-76
2021/04/27 08:19:11;;;;;;;6.50;4.10;;;;;;;8.68;38.88;94833.41;5010883;28;20555;-75
2021/04/27 08:21:37;;;;;;;6.23;4.77;;;;;;;8.42;39.50;94824.81;5010847;28;20710;-76
2021/04/27 08:24:03;;;;;;;4.97;4.40;;;;;;;8.30;39.48;94836.34;5010899;28;20190;-75
2021/04/27 08:26:29;;;;;;;6.63;4.47;;;;;;;8.29;39.23;94832.13;5010212;28;20754;-76
2021/04/27 08:28:54;;;;;;;7.93;4.27;;;;;;;8.57;38.62;94835.41;5010780;28;20345;-76
2021/04/27 08:31:20;;;;;;;9.63;5.10;;;;;;;8.48;39.05;94830.22;4996659;28;20262;-75
2021/04/27 08:33:45;;;;;;;13.13;5.20;;;;;;;8.65;39.43;94838.84;5011316;28;20179;-76
2021/04/27 08:36:10;;;;;;;6.53;4.77;;;;;;;8.82;38.81;94831.19;5012859;28;20548;-78
2021/04/27 08:38:36;;;;;;;9.73;4.90;;;;;;;8.95;39.33;94834.19;5016200;28;20183;-77
2021/04/27 08:41:02;;;;;;;10.93;5.47;;;;;;;8.91;38.41;94833.66;4998826;28;20649;-78
2021/04/27 08:43:28;;;;;;;7.40;5.00;;;;;;;9.06;38.19;94839.06;4995228;28;20747;-78
2021/04/27 08:45:53;;;;;;;6.70;4.77;;;;;;;9.46;37.81;94835.03;5000243;28;20209;-77
2021/04/27 08:48:18;;;;;;;5.33;4.70;;;;;;;9.87;38.46;94821.16;4997275;28;20595;-78
2021/04/27 08:50:44;;;;;;;10.53;5.10;;;;;;;9.78;37.91;94826.47;4994139;28;20635;-78
2021/04/27 08:53:10;;;;;;;7.27;5.10;;;;;;;9.60;37.43;94826.63;5012774;28;20241;-78
2021/04/27 08:55:36;;;;;;;16.57;5.03;;;;;;;9.93;37.15;94830.88;4994702;28;20211;-78
2021/04/27 08:58:10;;;;;;;13.20;5.37;;;;;;;9.67;37.38;94827.59;4994659;28;20187;-76
2021/04/27 09:00:36;;;;;;;13.40;5.70;;;;;;;10.28;37.45;94818.59;4994013;28;20183;-75
2021/04/27 09:03:04;;;;;;;9.17;5.17;;;;;;;10.53;37.00;94818.56;4993018;28;20557;-75
2021/04/27 09:05:32;;;;;;;7.40;5.97;;;;;;;10.33;35.89;94820.69;4976194;28;20227;-76
2021/04/27 09:07:58;;;;;;;32.67;8.50;;;;;;;10.32;36.80;94821.66;4992613;28;20717;-76
2021/04/27 09:10:27;;;;;;;11.03;5.20;;;;;;;10.12;35.74;94813.38;4992988;28;20179;-76
2021/04/27 09:13:02;;;;;;;8.43;5.60;;;;;;;9.99;35.68;94813.88;5009532;28;20318;-77
2021/04/27 09:15:50;;;;;;;13.70;5.70;;;;;;;10.39;35.37;94820.03;4993126;28;20206;-76
2021/04/27 09:18:36;;;;;;;9.63;5.80;;;;;;;9.96;36.40;94816.78;4995524;28;20186;-76
2021/04/27 09:21:10;;;;;;;8.60;5.77;;;;;;;9.82;36.44;94818.25;4980211;28;20214;-76
2021/04/27 09:23:40;;;;;;;7.77;5.63;;;;;;;10.09;35.08;94805.94;4996317;28;20194;-75
2021/04/27 09:26:13;;;;;;;7.73;5.40;;;;;;;10.53;35.05;94808.19;4996245;28;20260;-76
2021/04/27 09:28:46;;;;;;;12.13;5.77;;;;;;;10.81;34.87;94806.00;4996044;28;20207;-76
2021/04/27 09:31:31;;;;;;;9.97;5.67;;;;;;;11.31;35.58;94808.28;4996440;28;20534;-76
2021/04/27 09:34:28;;;;;;;9.43;5.20;;;;;;;11.55;34.50;94805.50;5015146;28;20194;-75
2021/04/27 09:36:59;;;;;;;32.17;7.83;;;;;;;11.78;32.21;94804.75;4995776;28;20690;-75
2021/04/27 09:39:47;;;;;;;8.37;5.50;;;;;;;11.84;31.35;94801.50;5014090;28;20195;-79
2021/04/27 09:42:17;;;;;;;8.57;5.70;;;;;;;11.90;33.63;94798.16;5001157;28;20193;-76
2021/04/27 09:44:45;;;;;;;16.33;5.43;;;;;;;11.38;34.45;94787.56;4995966;28;20241;-75
2021/04/27 09:47:12;;;;;;;9.07;5.50;;;;;;;11.37;32.33;94791.97;4995983;28;20203;-75
2021/04/27 09:49:37;;;;;;;8.53;4.93;;;;;;;11.22;33.10;94784.09;5013097;28;20310;-75
2021/04/27 09:52:10;;;;;;;14.10;5.60;;;;;;;11.55;34.06;94782.13;4996200;28;20266;-75
2021/04/27 09:54:57;;;;;;;7.60;5.17;;;;;;;11.42;34.09;94784.47;4995817;28;20667;-75
2021/04/27 09:57:32;;;;;;;9.37;5.10;;;;;;;11.61;34.78;94778.84;5013267;28;20261;-75
2021/04/27 10:00:35;;;;;;;8.60;5.50;;;;;;;11.37;33.48;94778.97;5013212;28;20701;-76
2021/04/27 10:03:06;;;;;;;8.33;5.40;;;;;;;11.43;31.77;94775.69;4995785;28;20314;-76
2021/04/27 10:05:33;;;;;;;9.10;5.10;;;;;;;11.38;32.00;94783.19;4994696;28;20238;-76
2021/04/27 10:07:59;;;;;;;11.80;5.57;;;;;;;11.67;34.03;94776.53;5011869;28;20191;-76
2021/04/27 10:10:33;;;;;;;8.43;5.40;;;;;;;11.63;33.62;94781.25;5012992;28;20548;-76
2021/04/27 10:13:00;;;;;;;9.33;5.30;;;;;;;11.70;33.44;94771.78;4995806;28;20743;-76
2021/04/27 10:15:26;;;;;;;8.17;5.70;;;;;;;11.50;31.97;94771.44;4994725;28;20203;-76
2021/04/27 10:17:51;;;;;;;6.90;6.00;;;;;;;11.76;32.94;94771.09;5012831;28;20191;-74
2021/04/27 10:20:17;;;;;;;19.17;7.13;;;;;;;12.08;32.13;94775.25;4995466;28;20278;-76
2021/04/27 10:22:45;;;;;;;6.80;4.90;;;;;;;12.30;31.62;94776.22;5013043;28;20693;-75
2021/04/27 10:25:19;;;;;;;24.83;7.80;;;;;;;12.44;31.55;94764.19;5012411;28;20218;-76
2021/04/27 10:27:44;;;;;;;9.57;5.80;;;;;;;12.25;30.90;94765.53;4995179;28;20194;-76
2021/04/27 10:30:16;;;;;;;9.10;6.13;;;;;;;11.98;31.61;94771.28;4993453;28;20207;-75
2021/04/27 10:32:41;;;;;;;10.70;6.10;;;;;;;11.91;33.66;94765.97;4997452;28;20185;-75
2021/04/27 10:35:09;;;;;;;8.57;6.00;;;;;;;11.53;31.26;94755.47;4984535;28;20645;-76
2021/04/27 10:37:58;;;;;;;9.30;6.27;;;;;;;11.86;33.18;94760.50;4987658;28;20189;-75
2021/04/27 10:40:45;;;;;;;7.23;6.00;;;;;;;12.01;30.86;94758.72;4999220;28;20640;-72
2021/04/27 10:43:26;;;;;;;11.23;6.17;;;;;;;12.16;33.35;94754.38;4995150;28;20685;-75
2021/04/27 10:46:04;;;;;;;10.80;6.10;;;;;;;12.32;30.83;94744.81;5008273;28;20313;-75
2021/04/27 10:48:38;;;;;;;10.03;6.60;;;;;;;12.38;32.22;94755.31;4992243;28;20269;-75
2021/04/27 10:51:23;;;;;;;7.13;5.97;;;;;;;12.33;31.54;94757.63;4992603;28;20269;-75
2021/04/27 10:54:04;;;;;;;11.97;6.50;;;;;;;12.04;31.33;94741.97;5001919;28;20269;-75
2021/04/27 10:56:35;;;;;;;9.50;6.43;;;;;;;11.93;31.91;94738.00;5009842;28;20614;-76
2021/04/27 10:59:09;;;;;;;11.20;6.30;;;;;;;11.77;32.49;94733.72;5009424;28;20187;-76
2021/04/27 11:01:37;;;;;;;8.67;6.43;;;;;;;11.72;33.42;94733.41;4974170;28;20191;-75
2021/04/27 11:04:02;;;;;;;12.90;6.40;;;;;;;11.63;32.05;94732.66;4993199;28;20191;-75
2021/04/27 11:06:28;;;;;;;8.53;6.43;;;;;;;11.79;32.77;94739.53;4991801;28;20211;-75
2021/04/27 11:08:54;;;;;;;9.53;6.40;;;;;;;11.53;30.71;94729.47;4991658;28;20223;-77
2021/04/27 11:11:33;;;;;;;14.63;7.50;;;;;;;11.88;32.06;94737.72;5009790;28;20193;-75
2021/04/27 11:14:11;;;;;;;9.80;6.30;;;;;;;12.41;31.66;94730.72;5008891;28;20187;-75
2021/04/27 11:16:36;;;;;;;9.83;6.53;;;;;;;12.70;30.61;94722.09;5008578;28;20209;-74
2021/04/27 11:19:38;;;;;;;15.03;6.73;;;;;;;12.97;32.20;94720.63;4993742;28;20551;-76
2021/04/27 11:22:19;;;;;;;9.57;6.03;;;;;;;13.03;29.46;94732.94;4998914;28;20205;-76
2021/04/27 11:24:45;;;;;;;9.43;7.00;;;;;;;13.14;27.66;94729.06;4993964;28;20179;-75
2021/04/27 11:27:29;;;;;;;15.30;7.33;;;;;;;13.12;29.88;94734.44;5012061;28;20210;-75
2021/04/27 11:29:59;;;;;;;8.93;5.93;;;;;;;13.17;29.17;94726.09;4997465;28;20223;-75
2021/04/27 11:32:26;;;;;;;12.87;6.90;;;;;;;12.97;30.30;94724.03;4987700;28;20559;-74
2021/04/27 11:35:16;;;;;;;9.40;6.90;;;;;;;13.07;29.59;94720.34;4993778;28;20187;-74
2021/04/27 11:37:51;;;;;;;10.77;6.67;;;;;;;12.42;30.56;94730.53;4976782;28;20249;-75
2021/04/27 11:40:25;;;;;;;13.07;7.27;;;;;;;13.08;29.77;94714.97;4977465;28;20597;-75